»·PEaware :: N171MA 1L1-2O7

N171MA :: 1L1-2O7

FLIGHT INFORMATION

Flight Status: Arrived
Operator: Privately registered:
United States
More flights under this callsign
Pilot: Tim M. (868)
Aircraft: CIRRUS SR-22
(SR22)
More flights by this aircraft type
Origin: 1L1 Lincoln Co
United States
Destination: 2O7 Independence
United States
More flights between these airports :: More routes between these airports
Route:
File this flight plan on PilotEdge
Remarks:
Altitude:
(Current/Filed)
8,500ft
Speed:
(Current/Filed)
175kts
Departed: 18-Sep-20 03:05 PM
Arrived: 18-Sep-20 04:41 PM
Distance/Time
Traveled:
190nm/1:36
Distance/Time
To Go:
Arrived

Flight Plot

Page will automatically refresh every two minutes.


Map Options




Map Legend


Flown Route
Filed Route
Departure Airport
Arrival Airport
Navaid (VOR, NDB)
Fix

Horizontal Profiles

Position Reports

Time Latitude Longitude Heading Altitude Ground
Speed
18-Sep-20 15:01 37.791425 -114.418406 92 4832ft 0kts
18-Sep-20 15:01 37.792256 -114.418396 267 4835ft 6kts
18-Sep-20 15:02 37.793623 -114.418761 275 4839ft 0kts
18-Sep-20 15:03 37.793173 -114.419623 182 4837ft 26kts
18-Sep-20 15:04 37.774577 -114.412282 69 5249ft 106kts
18-Sep-20 15:05 37.805429 -114.399221 8 6204ft 121kts
18-Sep-20 15:06 37.839903 -114.398624 3 7029ft 141kts
18-Sep-20 15:07 37.878905 -114.393746 6 7875ft 143kts
18-Sep-20 15:08 37.918904 -114.395002 9 8543ft 148kts
18-Sep-20 15:09 37.963223 -114.384747 13 8517ft 170kts
18-Sep-20 15:10 38.007623 -114.371010 14 8502ft 157kts
18-Sep-20 15:11 38.050114 -114.357841 12 8566ft 150kts
18-Sep-20 15:12 38.090224 -114.348267 10 9246ft 144kts
18-Sep-20 15:13 38.129681 -114.337835 12 9944ft 146kts
18-Sep-20 15:14 38.159097 -114.357427 279 10507ft 150kts
18-Sep-20 15:15 38.165864 -114.411284 278 10541ft 157kts
18-Sep-20 15:16 38.175409 -114.466441 281 10540ft 161kts
18-Sep-20 15:17 38.186445 -114.521608 282 10538ft 161kts
18-Sep-20 15:18 38.197852 -114.576714 282 10537ft 161kts
18-Sep-20 15:19 38.203385 -114.632217 253 10537ft 159kts
18-Sep-20 15:20 38.189506 -114.685497 250 10530ft 158kts
18-Sep-20 15:21 38.176549 -114.739260 251 10534ft 159kts
18-Sep-20 15:22 38.164434 -114.793420 252 10531ft 159kts
18-Sep-20 15:23 38.152473 -114.847872 252 10530ft 160kts
18-Sep-20 15:24 38.140454 -114.902361 252 10527ft 160kts
18-Sep-20 15:25 38.128311 -114.957168 252 10526ft 161kts
18-Sep-20 15:26 38.116110 -115.011925 252 10524ft 161kts
18-Sep-20 15:27 38.103879 -115.066901 256 10521ft 161kts
18-Sep-20 15:28 38.112484 -115.122671 286 10520ft 162kts
18-Sep-20 15:29 38.121997 -115.178691 273 10520ft 163kts
18-Sep-20 15:30 38.124495 -115.234923 272 10521ft 163kts
18-Sep-20 15:31 38.126681 -115.292285 272 10519ft 163kts
18-Sep-20 15:32 38.129003 -115.350045 272 10516ft 163kts
18-Sep-20 15:33 38.131292 -115.407651 272 10516ft 163kts
18-Sep-20 15:34 38.133633 -115.465237 272 10517ft 163kts
18-Sep-20 15:35 38.136105 -115.522779 273 10517ft 163kts
18-Sep-20 15:36 38.135505 -115.580160 268 10518ft 162kts
18-Sep-20 15:37 38.135809 -115.637455 271 10518ft 162kts
18-Sep-20 15:38 38.138807 -115.694538 271 10518ft 160kts
18-Sep-20 15:39 38.134486 -115.750754 261 10519ft 160kts
18-Sep-20 15:40 38.128844 -115.807104 262 10522ft 160kts
18-Sep-20 15:41 38.123661 -115.863424 263 10521ft 160kts
18-Sep-20 15:42 38.118699 -115.919674 263 10524ft 160kts
18-Sep-20 15:43 38.113718 -115.975913 263 10525ft 160kts
18-Sep-20 15:44 38.108781 -116.032046 263 10526ft 160kts
18-Sep-20 15:45 38.103952 -116.088240 263 10527ft 160kts
18-Sep-20 15:46 38.099118 -116.144541 263 10530ft 160kts
18-Sep-20 15:47 38.099521 -116.200769 279 10529ft 161kts
18-Sep-20 15:48 38.107677 -116.256581 279 10532ft 160kts
18-Sep-20 15:49 38.115015 -116.312326 278 10532ft 160kts
18-Sep-20 15:50 38.121965 -116.368379 278 10532ft 160kts
18-Sep-20 15:51 38.127063 -116.424869 272 10534ft 161kts
18-Sep-20 15:52 38.129534 -116.481514 272 10534ft 160kts
18-Sep-20 15:53 38.132189 -116.538244 273 10535ft 161kts
18-Sep-20 15:54 38.134859 -116.595068 272 10536ft 161kts
18-Sep-20 15:55 38.116376 -116.645965 236 10535ft 161kts
18-Sep-20 15:56 38.092814 -116.694831 239 10535ft 162kts
18-Sep-20 15:57 38.070757 -116.744642 240 10536ft 162kts
18-Sep-20 15:58 38.049147 -116.795138 241 10530ft 162kts
18-Sep-20 15:59 38.027654 -116.845723 241 10530ft 162kts
18-Sep-20 16:00 38.005900 -116.895814 241 10512ft 161kts
18-Sep-20 16:01 37.983798 -116.945660 241 10508ft 162kts
18-Sep-20 16:02 37.961788 -116.995471 241 10509ft 162kts
18-Sep-20 16:03 37.940099 -117.045570 241 10519ft 163kts
18-Sep-20 16:04 37.918563 -117.096555 241 10518ft 164kts
18-Sep-20 16:05 37.897071 -117.147517 241 10517ft 164kts
18-Sep-20 16:06 37.870074 -117.192032 204 10515ft 162kts
18-Sep-20 16:07 37.832974 -117.223726 222 10513ft 163kts
18-Sep-20 16:08 37.797160 -117.258627 219 10513ft 163kts
18-Sep-20 16:09 37.761358 -117.293701 218 10512ft 163kts
18-Sep-20 16:10 37.729721 -117.334332 235 10512ft 163kts
18-Sep-20 16:11 37.704087 -117.381850 234 10510ft 163kts
18-Sep-20 16:12 37.677795 -117.428429 233 10510ft 162kts
18-Sep-20 16:13 37.651194 -117.474552 233 10510ft 162kts
18-Sep-20 16:14 37.624475 -117.520614 233 10510ft 162kts
18-Sep-20 16:15 37.597797 -117.566328 233 10511ft 162kts
18-Sep-20 16:16 37.569279 -117.610248 227 10511ft 162kts
18-Sep-20 16:17 37.539231 -117.652571 228 10511ft 162kts
18-Sep-20 16:18 37.509357 -117.695140 228 10510ft 161kts
18-Sep-20 16:19 37.479719 -117.737538 228 10510ft 162kts
18-Sep-20 16:20 37.450051 -117.780037 228 10512ft 161kts
18-Sep-20 16:21 37.420357 -117.822476 228 10516ft 161kts
18-Sep-20 16:22 37.390719 -117.864646 228 10521ft 161kts
18-Sep-20 16:23 37.360931 -117.906968 228 10526ft 161kts
18-Sep-20 16:24 37.331293 -117.948927 228 10530ft 161kts
18-Sep-20 16:25 37.301517 -117.990870 228 10536ft 160kts
18-Sep-20 16:26 37.271673 -118.032797 228 10541ft 161kts
18-Sep-20 16:27 37.241989 -118.074895 228 10528ft 161kts
18-Sep-20 16:28 37.205131 -118.107414 215 10207ft 163kts
18-Sep-20 16:29 37.167620 -118.139663 215 9329ft 158kts
18-Sep-20 16:30 37.129920 -118.165727 207 8751ft 155kts
18-Sep-20 16:31 37.088866 -118.183630 192 8029ft 159kts
18-Sep-20 16:32 37.046506 -118.193527 190 7537ft 154kts
18-Sep-20 16:33 37.003802 -118.200827 188 6963ft 154kts
18-Sep-20 16:34 36.961928 -118.209597 187 6556ft 159kts
18-Sep-20 16:35 36.916525 -118.219322 185 6036ft 161kts
18-Sep-20 16:36 36.871435 -118.217746 175 5410ft 160kts
18-Sep-20 16:37 36.833260 -118.204968 145 5077ft 113kts
18-Sep-20 16:38 36.807747 -118.187477 195 4794ft 83kts
18-Sep-20 16:39 36.814629 -118.204216 337 3898ft 43kts
18-Sep-20 16:40 36.812340 -118.202873 156 3899ft 37kts
18-Sep-20 16:41 36.810045 -118.202635 155 3896ft 0kts

Navigation Log

Ident Type
Flight plan parsing failed, navigation log unavailable